Time;durP1;ratioP1;P1;durP2;ratioP2;P2;SDS_P1;SDS_P2;PMS_P1;PMS_P2;Temp;Humidity;BMP_temperature;BMP_pressure;BME280_temperature;BME280_humidity;BME280_pressure;Samples;Min_cycle;Max_cycle;Signal;HPM_P1;HPM_P2
2024/03/28 00:01:10;;;;;;;34.30;20.45;;;;;;;13.27;100.00;98960.31;5097044;28;20036;-65
2024/03/28 00:03:35;;;;;;;32.97;20.38;;;;;;;13.20;100.00;98967.44;5097066;28;20218;-63
2024/03/28 00:06:02;;;;;;;30.77;19.35;;;;;;;13.25;100.00;98976.47;5097169;28;20046;-63
2024/03/28 00:08:28;;;;;;;38.72;23.63;;;;;;;13.30;100.00;98982.00;5097259;28;20027;-64
2024/03/28 00:10:54;;;;;;;44.50;24.60;;;;;;;13.29;100.00;98967.06;5096888;28;20105;-64
2024/03/28 00:13:20;;;;;;;41.28;24.25;;;;;;;13.26;100.00;98975.44;5096772;28;20250;-63
2024/03/28 00:15:56;;;;;;;41.83;24.65;;;;;;;13.00;100.00;98930.09;5096613;28;20036;-65
2024/03/28 00:18:22;;;;;;;45.35;26.45;;;;;;;12.80;100.00;98927.34;5095526;28;20090;-63
2024/03/28 00:20:55;;;;;;;51.15;27.95;;;;;;;12.62;100.00;98937.66;5096796;28;20311;-64
2024/03/28 00:23:20;;;;;;;55.20;29.77;;;;;;;12.73;100.00;98948.56;5097070;28;20064;-64
2024/03/28 00:25:54;;;;;;;47.05;26.67;;;;;;;12.65;100.00;98937.28;5096473;28;20395;-63
2024/03/28 00:28:19;;;;;;;54.13;28.73;;;;;;;12.81;100.00;98929.00;5096634;28;20214;-64
2024/03/28 00:30:46;;;;;;;46.63;27.60;;;;;;;12.70;100.00;98898.47;5099651;28;20070;-64
2024/03/28 00:33:11;;;;;;;46.63;27.90;;;;;;;12.85;100.00;98868.31;5101147;28;20046;-64
2024/03/28 00:35:44;;;;;;;46.08;27.65;;;;;;;12.98;100.00;98857.72;5100702;28;20036;-64
2024/03/28 00:38:10;;;;;;;51.45;26.48;;;;;;;12.85;100.00;98885.06;5099823;28;20046;-67
2024/03/28 00:40:37;;;;;;;46.53;26.50;;;;;;;12.86;100.00;98884.06;5101144;28;20330;-64
2024/03/28 00:43:05;;;;;;;45.75;26.40;;;;;;;12.92;100.00;98879.78;5101126;28;20034;-64
2024/03/28 00:45:30;;;;;;;48.03;26.42;;;;;;;12.99;100.00;98867.34;5101077;28;20054;-64
2024/03/28 00:47:56;;;;;;;47.40;26.33;;;;;;;12.88;100.00;98860.75;5100338;28;20245;-66
2024/03/28 00:50:21;;;;;;;47.08;26.60;;;;;;;13.04;100.00;98884.34;5100419;28;20090;-66
2024/03/28 00:52:47;;;;;;;46.83;27.67;;;;;;;12.59;100.00;98908.84;5100683;28;20291;-63
2024/03/28 00:55:12;;;;;;;47.17;26.90;;;;;;;12.81;100.00;98912.22;5100402;28;20302;-63
2024/03/28 00:57:39;;;;;;;52.50;27.60;;;;;;;12.73;100.00;98899.94;5100176;28;20323;-64
2024/03/28 01:00:05;;;;;;;44.08;26.35;;;;;;;12.89;100.00;98888.97;5100806;28;20231;-64
2024/03/28 01:02:31;;;;;;;49.00;27.58;;;;;;;12.66;100.00;98875.16;5100401;28;20127;-64
2024/03/28 01:04:56;;;;;;;46.90;26.80;;;;;;;12.80;100.00;98900.78;5100686;28;20398;-63
2024/03/28 01:07:21;;;;;;;48.60;25.83;;;;;;;12.79;100.00;98909.78;5099880;28;20040;-64
2024/03/28 01:09:47;;;;;;;45.53;27.25;;;;;;;12.90;100.00;98913.69;5099612;28;20047;-63
2024/03/28 01:12:12;;;;;;;46.83;26.17;;;;;;;12.93;100.00;98906.16;5097546;28;20079;-65
2024/03/28 01:14:38;;;;;;;45.95;25.52;;;;;;;12.98;100.00;98892.28;5100431;28;20028;-66
2024/03/28 01:17:03;;;;;;;44.42;26.05;;;;;;;13.10;100.00;98886.19;5098877;28;20334;-64
2024/03/28 01:19:29;;;;;;;42.10;25.75;;;;;;;13.08;100.00;98890.88;5099817;28;20055;-64
2024/03/28 01:21:54;;;;;;;43.47;24.92;;;;;;;13.18;100.00;98905.69;5099554;28;20034;-64
2024/03/28 01:24:20;;;;;;;43.08;24.77;;;;;;;13.19;100.00;98905.47;5099763;28;20314;-63
2024/03/28 01:26:45;;;;;;;43.70;24.25;;;;;;;13.17;100.00;98899.53;5099055;28;20055;-64
2024/03/28 01:29:11;;;;;;;40.83;24.33;;;;;;;13.00;100.00;98895.56;5099212;28;20048;-63
2024/03/28 01:31:36;;;;;;;43.22;24.85;;;;;;;12.74;100.00;98891.75;5097611;28;20280;-66
2024/03/28 01:34:01;;;;;;;40.38;23.65;;;;;;;12.55;100.00;98895.13;5099915;28;20028;-64
2024/03/28 01:36:27;;;;;;;43.22;25.17;;;;;;;12.68;100.00;98887.25;5100128;28;20081;-64
2024/03/28 01:38:52;;;;;;;40.17;23.17;;;;;;;12.82;100.00;98874.03;5097924;28;20086;-64
2024/03/28 01:41:18;;;;;;;41.50;23.58;;;;;;;12.85;100.00;98861.16;5099399;28;20048;-64
2024/03/28 01:43:43;;;;;;;45.30;25.75;;;;;;;12.87;100.00;98863.63;5098242;28;20036;-64
2024/03/28 01:46:10;;;;;;;41.90;24.88;;;;;;;12.94;100.00;98864.47;5099132;28;20044;-64
2024/03/28 01:48:36;;;;;;;40.20;25.00;;;;;;;12.84;100.00;98869.31;5098261;28;20039;-66
2024/03/28 01:51:02;;;;;;;44.03;23.58;;;;;;;12.92;100.00;98856.69;5099439;28;20253;-64
2024/03/28 01:53:28;;;;;;;42.00;23.77;;;;;;;12.96;100.00;98859.78;5098375;28;20357;-64
2024/03/28 01:55:54;;;;;;;38.80;23.33;;;;;;;13.04;100.00;98883.50;5098577;28;20032;-65
2024/03/28 01:58:20;;;;;;;42.60;25.23;;;;;;;13.11;100.00;98879.88;5097711;28;20069;-64
2024/03/28 02:00:48;;;;;;;42.22;23.33;;;;;;;13.02;100.00;98873.09;5098885;28;20055;-64
2024/03/28 02:03:14;;;;;;;40.13;23.75;;;;;;;12.72;100.00;98863.75;5097363;28;20039;-63
2024/03/28 02:05:40;;;;;;;37.50;23.17;;;;;;;12.61;100.00;98874.94;5098522;28;20036;-64
2024/03/28 02:08:05;;;;;;;38.40;22.85;;;;;;;12.68;100.00;98878.44;5098489;28;20369;-64
2024/03/28 02:10:34;;;;;;;40.78;22.30;;;;;;;12.69;100.00;98896.03;5098216;28;20055;-64
2024/03/28 02:12:59;;;;;;;39.97;22.38;;;;;;;12.66;100.00;98893.75;5097776;28;20252;-66
2024/03/28 02:15:25;;;;;;;38.83;21.42;;;;;;;12.60;100.00;98868.81;5097375;28;20035;-65
2024/03/28 02:17:51;;;;;;;40.85;22.70;;;;;;;12.58;100.00;98836.31;5099549;28;20093;-64
2024/03/28 02:20:17;;;;;;;36.95;21.75;;;;;;;12.73;100.00;98847.63;5097696;28;20232;-64
2024/03/28 02:22:43;;;;;;;33.95;21.35;;;;;;;12.77;100.00;98872.78;5099148;28;20036;-64
2024/03/28 02:25:09;;;;;;;36.80;22.15;;;;;;;12.82;100.00;98869.53;5097505;28;20043;-66
2024/03/28 02:27:36;;;;;;;42.33;23.23;;;;;;;12.83;100.00;98857.88;5098040;28;20039;-65
2024/03/28 02:30:07;;;;;;;39.58;22.20;;;;;;;12.83;100.00;98851.75;5098201;28;20218;-64
2024/03/28 02:32:33;;;;;;;43.50;25.00;;;;;;;12.78;100.00;98857.66;5098166;28;20036;-65
2024/03/28 02:34:58;;;;;;;44.40;24.60;;;;;;;12.73;100.00;98849.47;5098054;28;20344;-62
2024/03/28 02:37:24;;;;;;;43.80;25.77;;;;;;;12.63;100.00;98843.69;5098072;28;20043;-62
2024/03/28 02:39:49;;;;;;;46.55;25.05;;;;;;;12.74;100.00;98848.44;5097961;28;20272;-63
2024/03/28 02:42:14;;;;;;;43.33;24.35;;;;;;;12.66;100.00;98853.91;5097534;28;20043;-62
2024/03/28 02:44:40;;;;;;;41.22;25.60;;;;;;;12.56;100.00;98882.66;5098270;28;20315;-65
2024/03/28 02:47:06;;;;;;;46.47;25.83;;;;;;;12.62;100.00;98868.63;5097194;28;20036;-64
2024/03/28 02:49:32;;;;;;;51.78;25.77;;;;;;;12.31;100.00;98839.81;5098546;28;20028;-62
2024/03/28 02:51:57;;;;;;;44.60;27.02;;;;;;;12.39;100.00;98860.91;5096349;28;20241;-62
2024/03/28 02:54:23;;;;;;;45.28;25.52;;;;;;;12.54;100.00;98842.22;5099393;28;20029;-62
2024/03/28 02:56:51;;;;;;;53.47;27.80;;;;;;;12.26;100.00;98826.31;5096507;28;20040;-63
2024/03/28 02:59:17;;;;;;;45.97;26.30;;;;;;;12.12;100.00;98843.97;5098334;28;20027;-63
2024/03/28 03:01:43;;;;;;;47.10;26.98;;;;;;;12.36;100.00;98821.47;5095852;28;20349;-64
2024/03/28 03:04:08;;;;;;;48.15;26.42;;;;;;;12.11;100.00;98808.66;5097592;28;20032;-64
2024/03/28 03:06:33;;;;;;;44.30;25.38;;;;;;;12.12;100.00;98810.28;5095158;28;20067;-64
2024/03/28 03:08:59;;;;;;;49.30;26.25;;;;;;;12.20;100.00;98795.25;5097642;28;20263;-66
2024/03/28 03:11:24;;;;;;;49.25;27.20;;;;;;;12.19;100.00;98806.88;5097118;28;20342;-64
2024/03/28 03:13:50;;;;;;;52.88;27.50;;;;;;;12.33;100.00;98787.34;5097649;28;20058;-63
2024/03/28 03:16:15;;;;;;;52.47;28.92;;;;;;;12.32;100.00;98815.72;5096900;28;20249;-64
2024/03/28 03:18:41;;;;;;;53.75;27.92;;;;;;;12.21;100.00;98792.38;5096757;28;20032;-66
2024/03/28 03:21:08;;;;;;;47.30;27.20;;;;;;;12.18;100.00;98808.69;5097166;28;20040;-66
2024/03/28 03:23:46;;;;;;;49.97;28.02;;;;;;;12.25;100.00;98782.19;5095596;28;20034;-64
2024/03/28 03:26:19;;;;;;;48.42;27.27;;;;;;;12.38;100.00;98780.44;5097403;28;20032;-63
2024/03/28 03:36:57;;;;;;;52.58;27.67;;;;;;;11.74;100.00;98788.59;5095219;28;20043;-64
2024/03/28 03:39:23;;;;;;;50.25;27.30;;;;;;;11.89;100.00;98788.50;5095675;28;20253;-65
2024/03/28 03:41:49;;;;;;;46.40;26.38;;;;;;;11.99;100.00;98806.75;5096885;28;20289;-63
2024/03/28 03:44:14;;;;;;;44.53;25.65;;;;;;;12.05;100.00;98814.75;5096280;28;20114;-64
2024/03/28 03:46:40;;;;;;;62.50;31.58;;;;;;;12.12;100.00;98820.91;5097102;28;20255;-62
2024/03/28 03:49:06;;;;;;;47.65;26.83;;;;;;;12.27;100.00;98823.44;5095947;28;20066;-62
2024/03/28 03:51:33;;;;;;;47.78;24.98;;;;;;;12.33;100.00;98824.50;5096970;28;20346;-62
2024/03/28 03:53:58;;;;;;;43.90;25.10;;;;;;;12.49;100.00;98815.44;5096196;28;20356;-63
2024/03/28 03:56:24;;;;;;;42.42;24.70;;;;;;;12.55;100.00;98806.69;5096786;28;20031;-65
2024/03/28 03:58:49;;;;;;;48.65;26.67;;;;;;;12.50;100.00;98817.06;5096899;28;20241;-62
2024/03/28 04:01:17;;;;;;;46.75;26.45;;;;;;;12.51;100.00;98838.13;5096786;28;20096;-62
2024/03/28 04:03:43;;;;;;;44.60;26.27;;;;;;;12.61;100.00;98819.16;5095274;28;20029;-63
2024/03/28 04:06:10;;;;;;;38.70;24.30;;;;;;;12.68;100.00;98820.84;5096805;28;20429;-62
2024/03/28 04:08:36;;;;;;;45.58;25.67;;;;;;;12.71;100.00;98828.41;5096007;28;20036;-62
2024/03/28 04:11:01;;;;;;;48.30;26.33;;;;;;;12.69;100.00;98825.13;5095755;28;20109;-62
2024/03/28 04:13:27;;;;;;;45.67;24.58;;;;;;;12.50;100.00;98835.66;5096626;28;20032;-62
2024/03/28 04:15:52;;;;;;;46.10;25.55;;;;;;;12.54;100.00;98827.09;5096227;28;20040;-65
2024/03/28 04:18:18;;;;;;;45.50;25.20;;;;;;;12.29;100.00;98833.88;5096514;28;20036;-64
2024/03/28 04:20:43;;;;;;;44.03;23.63;;;;;;;12.41;100.00;98819.03;5096440;28;20379;-62
2024/03/28 04:23:09;;;;;;;39.50;24.15;;;;;;;12.45;100.00;98830.91;5096885;28;20059;-61
2024/03/28 04:25:34;;;;;;;45.08;25.08;;;;;;;12.47;100.00;98826.22;5095208;28;20288;-62
2024/03/28 04:28:00;;;;;;;45.67;25.15;;;;;;;12.53;100.00;98830.78;5096759;28;20039;-63
2024/03/28 04:30:30;;;;;;;43.83;25.33;;;;;;;12.59;100.00;98831.81;5095895;28;20040;-62
2024/03/28 04:32:56;;;;;;;49.97;26.55;;;;;;;12.58;100.00;98843.47;5096509;28;20262;-63
2024/03/28 04:35:23;;;;;;;43.78;24.88;;;;;;;12.49;100.00;98842.81;5095473;28;20334;-64
2024/03/28 04:37:49;;;;;;;46.95;24.20;;;;;;;12.36;100.00;98840.03;5095432;28;20039;-62
2024/03/28 04:40:15;;;;;;;42.83;24.23;;;;;;;12.26;100.00;98836.91;5095317;28;20044;-62
2024/03/28 04:42:41;;;;;;;42.50;25.38;;;;;;;12.25;100.00;98829.97;5095833;28;20033;-62
2024/03/28 04:45:08;;;;;;;41.63;23.35;;;;;;;12.31;100.00;98831.84;5096680;28;20078;-62
2024/03/28 04:47:35;;;;;;;45.28;25.73;;;;;;;12.09;100.00;98834.56;5096134;28;20028;-62
2024/03/28 04:50:01;;;;;;;48.13;25.70;;;;;;;12.12;100.00;98833.38;5096328;28;20047;-64
2024/03/28 04:52:27;;;;;;;52.22;27.35;;;;;;;12.12;100.00;98825.41;5094927;28;20103;-61
2024/03/28 04:54:52;;;;;;;49.35;26.67;;;;;;;12.13;100.00;98817.25;5095978;28;20085;-62
2024/03/28 04:57:17;;;;;;;53.20;26.58;;;;;;;12.18;100.00;98827.28;5094157;28;20047;-62
2024/03/28 04:59:43;;;;;;;54.65;26.90;;;;;;;12.14;100.00;98826.84;5097136;28;20055;-62
2024/03/28 05:02:09;;;;;;;53.67;28.13;;;;;;;12.18;100.00;98813.19;5093875;28;20040;-63
2024/03/28 05:04:34;;;;;;;52.28;26.85;;;;;;;12.12;100.00;98820.91;5096006;28;20039;-64
2024/03/28 05:06:59;;;;;;;53.67;27.90;;;;;;;12.21;100.00;98826.88;5094576;28;20044;-62
2024/03/28 05:09:26;;;;;;;53.80;27.08;;;;;;;12.25;100.00;98851.22;5096177;28;20262;-63
2024/03/28 05:11:52;;;;;;;54.05;28.02;;;;;;;12.12;100.00;98865.22;5095613;28;20036;-62
2024/03/28 05:14:18;;;;;;;51.33;27.08;;;;;;;12.08;100.00;98874.56;5096244;28;20151;-61
2024/03/28 05:16:44;;;;;;;57.58;27.40;;;;;;;12.07;100.00;98888.84;5098150;28;20101;-62
2024/03/28 05:19:09;;;;;;;57.28;30.67;;;;;;;11.97;100.00;98886.53;5099119;28;20289;-62
2024/03/28 05:21:35;;;;;;;60.13;30.27;;;;;;;11.99;100.00;98879.19;5098702;28;20038;-64
2024/03/28 05:24:01;;;;;;;56.65;31.00;;;;;;;12.13;100.00;98893.38;5099502;28;20035;-62
2024/03/28 05:26:27;;;;;;;48.92;29.20;;;;;;;12.28;100.00;98891.44;5099651;28;20226;-62
2024/03/28 05:28:52;;;;;;;54.55;30.50;;;;;;;12.37;100.00;98876.19;5099656;28;20036;-62
2024/03/28 05:31:18;;;;;;;48.80;27.77;;;;;;;12.49;100.00;98882.63;5100343;28;20034;-62
2024/03/28 05:33:44;;;;;;;50.67;27.70;;;;;;;12.58;100.00;98886.78;5098417;28;20341;-64
2024/03/28 05:36:11;;;;;;;49.75;29.15;;;;;;;12.69;100.00;98882.75;5100349;28;20028;-62
2024/03/28 05:38:36;;;;;;;49.83;28.25;;;;;;;12.72;100.00;98867.22;5098273;28;20054;-62
2024/03/28 05:41:02;;;;;;;47.00;28.98;;;;;;;12.72;100.00;98880.50;5099560;28;20246;-63
2024/03/28 05:43:28;;;;;;;52.65;30.45;;;;;;;12.53;100.00;98881.22;5097624;28;20179;-63
2024/03/28 05:45:53;;;;;;;53.42;28.08;;;;;;;12.46;100.00;98875.03;5099301;28;20065;-66
2024/03/28 05:48:19;;;;;;;50.80;26.92;;;;;;;12.44;100.00;98866.44;5099658;28;20048;-64
2024/03/28 05:50:45;;;;;;;44.13;25.73;;;;;;;12.47;100.00;98863.38;5099854;28;20330;-63
2024/03/28 05:53:10;;;;;;;48.45;29.02;;;;;;;12.35;100.00;98873.72;5100180;28;20039;-63
2024/03/28 05:55:36;;;;;;;53.17;30.25;;;;;;;12.32;100.00;98865.34;5099651;28;20036;-63
2024/03/28 05:58:02;;;;;;;48.00;26.17;;;;;;;12.34;100.00;98876.59;5095867;28;20297;-63
2024/03/28 06:00:27;;;;;;;43.08;24.27;;;;;;;12.55;100.00;98891.66;5079425;28;20040;-62
2024/03/28 06:02:53;;;;;;;43.38;25.65;;;;;;;12.49;100.00;98913.69;5080090;28;20043;-63
2024/03/28 06:05:19;;;;;;;64.03;35.25;;;;;;;12.47;100.00;98887.28;5098437;28;20036;-65
2024/03/28 06:07:44;;;;;;;61.80;34.38;;;;;;;12.36;100.00;98899.28;5098296;28;20233;-63
2024/03/28 06:10:10;;;;;;;49.42;28.50;;;;;;;12.63;100.00;98908.25;5097849;28;20262;-63
2024/03/28 06:12:35;;;;;;;49.35;27.35;;;;;;;12.57;100.00;98911.69;5099131;28;20234;-63
2024/03/28 06:15:01;;;;;;;44.03;24.67;;;;;;;12.67;100.00;98906.03;5098154;28;20044;-62
2024/03/28 06:17:26;;;;;;;43.80;23.63;;;;;;;12.86;100.00;98912.47;5099810;28;20043;-65
2024/03/28 06:19:51;;;;;;;42.22;23.20;;;;;;;12.99;100.00;98902.72;5099478;28;20043;-65
2024/03/28 06:22:20;;;;;;;38.47;22.50;;;;;;;12.89;100.00;98917.38;5099054;28;20040;-64
2024/03/28 06:24:45;;;;;;;37.03;21.85;;;;;;;12.96;100.00;98915.56;5090100;28;20036;-65
2024/03/28 06:27:12;;;;;;;45.08;24.13;;;;;;;12.99;100.00;98912.53;5077495;28;20040;-64
2024/03/28 06:29:49;;;;;;;40.30;21.67;;;;;;;12.83;100.00;98916.31;5079610;28;20113;-64
2024/03/28 06:32:24;;;;;;;35.95;21.33;;;;;;;12.96;100.00;98910.25;5078263;28;20235;-62
2024/03/28 06:34:54;;;;;;;36.70;20.67;;;;;;;13.01;100.00;98913.16;5078957;28;20061;-63
2024/03/28 06:37:20;;;;;;;36.97;21.08;;;;;;;13.02;100.00;98912.94;5078246;28;20099;-63
2024/03/28 06:39:46;;;;;;;42.35;24.15;;;;;;;13.13;100.00;98902.75;5082260;28;20054;-65
2024/03/28 06:42:12;;;;;;;35.97;21.98;;;;;;;13.24;100.00;98905.69;5098151;28;20341;-66
2024/03/28 06:44:37;;;;;;;34.85;20.77;;;;;;;13.37;100.00;98916.38;5098166;28;20043;-63
2024/03/28 06:47:04;;;;;;;31.25;19.40;;;;;;;13.55;100.00;98907.03;5078065;28;20314;-64
2024/03/28 06:49:30;;;;;;;35.75;18.90;;;;;;;13.76;100.00;98911.38;5079483;28;20413;-64
2024/03/28 06:51:56;;;;;;;37.15;20.02;;;;;;;13.89;100.00;98911.38;5095823;28;20437;-67
2024/03/28 06:54:22;;;;;;;34.55;18.85;;;;;;;13.96;100.00;98907.72;5099810;28;20039;-67
2024/03/28 06:56:47;;;;;;;29.65;15.07;;;;;;;14.31;100.00;98904.84;5082207;28;20342;-64
2024/03/28 06:59:13;;;;;;;33.85;15.02;;;;;;;14.65;100.00;98904.63;5078765;28;20036;-66
2024/03/28 07:01:42;;;;;;;33.45;12.63;;;;;;;14.92;100.00;98918.69;5090590;28;20207;-65
2024/03/28 07:04:08;;;;;;;24.90;12.60;;;;;;;15.29;100.00;98913.63;5099018;28;20036;-65
2024/03/28 07:06:35;;;;;;;20.17;9.73;;;;;;;15.51;100.00;98906.13;5097832;28;20044;-64
2024/03/28 07:09:00;;;;;;;23.65;9.93;;;;;;;15.75;100.00;98908.09;5098283;28;20342;-63
2024/03/28 07:11:26;;;;;;;17.95;8.52;;;;;;;15.95;100.00;98923.97;5098525;28;20040;-62
2024/03/28 07:13:51;;;;;;;18.20;8.75;;;;;;;16.14;100.00;98915.00;5097815;28;20104;-63
2024/03/28 07:16:18;;;;;;;20.80;10.23;;;;;;;16.28;100.00;98923.72;5097767;28;20032;-63
2024/03/28 07:18:44;;;;;;;21.20;10.27;;;;;;;16.36;100.00;98917.28;5097877;28;20065;-64
2024/03/28 07:21:10;;;;;;;17.70;9.13;;;;;;;16.50;100.00;98927.63;5097755;28;20044;-66
2024/03/28 07:23:36;;;;;;;18.30;9.07;;;;;;;16.58;100.00;98916.66;5085150;28;20219;-66
2024/03/28 07:26:03;;;;;;;13.05;7.90;;;;;;;16.85;100.00;98922.59;5097318;28;20095;-63
2024/03/28 07:28:28;;;;;;;23.15;8.73;;;;;;;17.14;100.00;98941.63;5078390;28;20346;-63
2024/03/28 07:30:54;;;;;;;18.90;8.00;;;;;;;17.42;100.00;98941.06;5078662;28;20028;-64
2024/03/28 07:33:19;;;;;;;18.55;8.15;;;;;;;17.67;100.00;98938.28;5093011;28;20043;-62
2024/03/28 07:35:45;;;;;;;14.23;6.70;;;;;;;17.86;100.00;98934.53;5098375;28;20263;-66
2024/03/28 07:38:11;;;;;;;20.75;8.05;;;;;;;18.00;100.00;98935.16;5096565;28;20302;-65
2024/03/28 07:40:37;;;;;;;14.55;6.40;;;;;;;17.96;97.46;98933.97;5098056;28;20111;-64
2024/03/28 07:43:03;;;;;;;16.60;7.35;;;;;;;17.80;100.00;98948.84;5097866;28;20341;-63
2024/03/28 07:45:28;;;;;;;13.93;7.13;;;;;;;17.74;100.00;98952.44;5097457;28;20446;-63
2024/03/28 07:47:54;;;;;;;14.45;6.35;;;;;;;17.57;100.00;98933.44;5096841;28;20153;-63
2024/03/28 07:50:20;;;;;;;13.02;6.82;;;;;;;17.51;100.00;98932.50;5097184;28;20073;-63
2024/03/28 07:52:46;;;;;;;13.43;8.20;;;;;;;17.65;100.00;98935.81;5097474;28;20028;-63
2024/03/28 07:55:13;;;;;;;18.85;8.90;;;;;;;17.88;100.00;98969.94;5097373;28;20356;-63
2024/03/28 07:57:40;;;;;;;17.35;8.02;;;;;;;18.26;100.00;98972.25;5096510;28;20059;-63
2024/03/28 08:00:06;;;;;;;17.33;8.50;;;;;;;18.48;100.00;98984.03;5076897;28;20138;-63
2024/03/28 08:02:32;;;;;;;14.88;7.22;;;;;;;18.67;98.90;98976.75;5077798;28;20051;-63
2024/03/28 08:04:59;;;;;;;16.30;6.25;;;;;;;18.85;96.17;98977.72;5095130;28;20310;-63
2024/03/28 08:07:25;;;;;;;11.70;5.68;;;;;;;18.84;97.59;98974.22;5097937;28;20063;-66
2024/03/28 08:09:50;;;;;;;17.08;6.25;;;;;;;18.66;97.14;98976.97;5096538;28;20321;-63
2024/03/28 08:12:18;;;;;;;11.20;6.18;;;;;;;18.61;100.00;98972.31;5098024;28;20047;-63
2024/03/28 08:14:44;;;;;;;12.32;5.65;;;;;;;18.50;97.37;98981.13;5097302;28;20032;-62
2024/03/28 08:17:09;;;;;;;11.63;5.82;;;;;;;18.62;100.00;98976.63;5097780;28;20256;-63
2024/03/28 08:19:35;;;;;;;14.88;5.38;;;;;;;18.90;100.00;98981.31;5087581;28;20103;-63
2024/03/28 08:22:00;;;;;;;11.00;4.97;;;;;;;19.11;94.83;98979.91;5076893;28;20044;-63
2024/03/28 08:24:30;;;;;;;9.32;4.70;;;;;;;19.41;92.43;98983.22;5083837;28;20329;-65
2024/03/28 08:26:56;;;;;;;12.50;5.50;;;;;;;19.82;91.30;98992.13;5096156;28;20225;-66
2024/03/28 08:29:22;;;;;;;15.65;5.47;;;;;;;20.03;84.73;98986.06;5093119;28;20045;-63
2024/03/28 08:31:47;;;;;;;14.65;5.30;;;;;;;20.32;83.71;98989.53;5076641;28;20376;-64
2024/03/28 08:34:13;;;;;;;15.20;5.75;;;;;;;20.56;84.23;98992.09;5078526;28;20040;-63
2024/03/28 08:36:38;;;;;;;12.90;4.65;;;;;;;20.59;83.32;98994.28;5096491;28;20033;-64
2024/03/28 08:39:05;;;;;;;18.42;5.38;;;;;;;20.57;83.49;98999.09;5097992;28;20067;-63
2024/03/28 08:41:31;;;;;;;15.60;5.25;;;;;;;20.59;83.37;99000.47;5077268;28;20340;-63
2024/03/28 08:43:57;;;;;;;15.98;5.63;;;;;;;20.73;81.73;98993.69;5077434;28;20031;-63
2024/03/28 08:46:22;;;;;;;15.02;5.13;;;;;;;20.71;79.02;99011.97;5076246;28;20334;-63
2024/03/28 08:48:48;;;;;;;10.77;4.95;;;;;;;20.74;80.64;99007.97;5078276;28;20040;-64
2024/03/28 08:51:16;;;;;;;14.75;5.78;;;;;;;20.86;84.53;99019.47;5098551;28;20036;-64
2024/03/28 08:53:42;;;;;;;16.77;5.45;;;;;;;20.90;86.81;99014.44;5102122;28;20065;-63
2024/03/28 08:56:08;;;;;;;17.98;7.07;;;;;;;21.12;89.81;99019.84;5099757;28;20072;-63
2024/03/28 08:58:35;;;;;;;17.40;6.55;;;;;;;21.34;92.57;99029.63;5101721;28;20044;-63
2024/03/28 09:01:00;;;;;;;14.77;5.70;;;;;;;21.38;87.60;99023.72;5099419;28;20032;-66
2024/03/28 09:03:26;;;;;;;15.25;7.03;;;;;;;21.32;88.45;99031.75;5101687;28;20038;-63
2024/03/28 09:05:53;;;;;;;22.48;8.80;;;;;;;21.44;90.69;99030.81;5100468;28;20080;-64
2024/03/28 09:08:19;;;;;;;14.88;5.97;;;;;;;21.43;88.15;99026.50;5100697;28;20050;-64
2024/03/28 09:10:54;;;;;;;15.50;7.75;;;;;;;21.49;90.55;99036.25;5100643;28;20044;-64
2024/03/28 09:13:21;;;;;;;23.45;9.88;;;;;;;21.55;90.72;99035.25;5101812;28;20036;-64
2024/03/28 09:15:47;;;;;;;15.48;8.48;;;;;;;21.56;90.33;99037.72;5100377;28;20310;-64
2024/03/28 09:18:13;;;;;;;17.98;8.73;;;;;;;21.60;86.93;99044.22;5100713;28;20327;-64
2024/03/28 09:20:38;;;;;;;20.35;9.40;;;;;;;21.55;85.21;99038.78;5100330;28;20032;-64
2024/03/28 09:23:04;;;;;;;16.30;9.10;;;;;;;21.43;86.69;99040.78;5100163;28;20040;-63
2024/03/28 09:25:29;;;;;;;30.13;12.68;;;;;;;21.51;86.89;99048.41;5100615;28;20056;-64
2024/03/28 09:27:55;;;;;;;20.45;10.90;;;;;;;21.46;88.24;99056.44;5099635;28;20210;-64
2024/03/28 09:30:21;;;;;;;21.52;11.85;;;;;;;21.53;88.42;99061.63;5100593;28;20035;-64
2024/03/28 09:32:47;;;;;;;15.95;8.43;;;;;;;21.53;85.70;99048.97;5098181;28;20038;-64
2024/03/28 09:35:13;;;;;;;17.90;8.35;;;;;;;21.60;86.04;99054.19;5099667;28;20058;-66
2024/03/28 09:37:38;;;;;;;15.27;6.38;;;;;;;21.41;84.60;99060.94;5098555;28;20053;-66
2024/03/28 09:40:08;;;;;;;14.63;6.50;;;;;;;21.42;85.67;99049.09;5099339;28;20044;-64
2024/03/28 09:42:37;;;;;;;13.88;6.28;;;;;;;21.37;84.33;99057.94;5098765;28;20065;-64
2024/03/28 09:45:06;;;;;;;16.67;6.40;;;;;;;21.42;86.17;99058.00;5100465;28;20213;-64
2024/03/28 09:47:34;;;;;;;14.52;6.57;;;;;;;21.48;86.78;99058.88;5098562;28;20028;-65
2024/03/28 09:50:00;;;;;;;16.30;7.07;;;;;;;21.50;86.89;99051.38;5099420;28;20383;-64
2024/03/28 09:52:29;;;;;;;19.58;6.57;;;;;;;21.53;87.81;99040.91;5098074;28;20058;-64
2024/03/28 09:54:55;;;;;;;13.93;6.80;;;;;;;21.61;88.12;99048.53;5098394;28;20322;-64
2024/03/28 09:57:21;;;;;;;13.20;6.22;;;;;;;21.55;88.51;99052.25;5098908;28;20032;-64
2024/03/28 09:59:46;;;;;;;16.90;6.85;;;;;;;21.60;90.37;99055.00;5098020;28;20345;-64
2024/03/28 10:02:19;;;;;;;11.70;5.72;;;;;;;21.44;89.79;99055.06;5098754;28;20068;-65
2024/03/28 10:04:51;;;;;;;16.52;5.70;;;;;;;21.31;88.82;99045.47;5098724;28;20038;-64
2024/03/28 10:07:17;;;;;;;14.40;5.50;;;;;;;21.34;89.32;99044.97;5098501;28;20071;-64
2024/03/28 10:09:44;;;;;;;20.05;7.50;;;;;;;21.45;88.93;99049.41;5098752;28;20284;-66
2024/03/28 10:12:13;;;;;;;18.17;6.82;;;;;;;21.52;91.32;99041.16;5098625;28;20036;-66
2024/03/28 10:14:42;;;;;;;22.58;7.25;;;;;;;21.61;90.28;99037.78;5098235;28;20142;-64
2024/03/28 10:17:10;;;;;;;16.75;6.75;;;;;;;21.61;87.84;99029.69;5099149;28;20059;-64
2024/03/28 10:19:39;;;;;;;13.27;6.85;;;;;;;21.63;89.33;99018.66;5097943;28;20313;-64
2024/03/28 10:22:09;;;;;;;15.05;6.03;;;;;;;21.71;88.60;99020.09;5098631;28;20028;-64
2024/03/28 10:24:46;;;;;;;17.60;6.82;;;;;;;21.78;90.46;99013.44;5097508;28;20362;-64
2024/03/28 10:27:15;;;;;;;12.93;5.72;;;;;;;21.83;89.81;99018.06;5099268;28;20054;-64
2024/03/28 10:29:53;;;;;;;15.93;5.90;;;;;;;21.79;86.94;99003.47;5098160;28;20043;-64
2024/03/28 10:32:18;;;;;;;18.50;6.18;;;;;;;21.59;87.31;98990.59;5099403;28;20039;-62
2024/03/28 10:34:52;;;;;;;14.15;5.80;;;;;;;21.67;86.12;99014.41;5083300;28;20206;-63
2024/03/28 10:37:27;;;;;;;14.75;6.32;;;;;;;21.54;86.96;99017.47;5079016;28;20103;-64
2024/03/28 10:39:53;;;;;;;14.77;6.47;;;;;;;21.58;86.92;99007.81;5092243;28;20387;-63
2024/03/28 10:42:18;;;;;;;12.68;6.25;;;;;;;21.62;86.36;99000.88;5099085;28;20143;-64
2024/03/28 10:44:46;;;;;;;15.82;5.22;;;;;;;21.61;82.97;99013.53;5098928;28;20074;-63
2024/03/28 10:47:13;;;;;;;13.27;5.00;;;;;;;21.62;83.72;99011.66;5099540;28;20384;-66
2024/03/28 10:50:20;;;;;;;19.73;5.60;;;;;;;21.69;82.46;99012.25;5099270;28;20103;-64
2024/03/28 10:52:51;;;;;;;11.50;5.07;;;;;;;21.79;82.98;99025.03;5088085;28;20059;-63
2024/03/28 10:55:22;;;;;;;18.05;5.45;;;;;;;21.86;84.48;99023.00;5086845;28;20040;-64
2024/03/28 10:57:48;;;;;;;23.35;5.70;;;;;;;21.94;83.44;99025.25;5077925;28;20048;-64
2024/03/28 11:00:14;;;;;;;14.50;5.03;;;;;;;22.05;80.77;99028.88;5087947;28;20136;-64
2024/03/28 11:02:43;;;;;;;18.92;5.32;;;;;;;22.13;81.93;99020.34;5098404;28;20048;-64
2024/03/28 11:05:08;;;;;;;24.05;5.60;;;;;;;22.16;80.22;99022.53;5090991;28;20061;-64
2024/03/28 11:07:34;;;;;;;14.40;4.80;;;;;;;22.05;82.45;99024.31;5078093;28;20056;-64
2024/03/28 11:10:00;;;;;;;19.20;6.53;;;;;;;22.08;82.49;99021.09;5078672;28;20041;-64
2024/03/28 11:12:28;;;;;;;15.38;5.82;;;;;;;22.14;79.71;99020.09;5077221;28;20056;-64
2024/03/28 11:15:04;;;;;;;18.38;5.25;;;;;;;22.18;78.00;99025.78;5080065;28;20036;-64
2024/03/28 11:17:30;;;;;;;17.77;6.40;;;;;;;22.25;77.74;99026.38;5098171;28;20059;-64
2024/03/28 11:20:03;;;;;;;13.32;5.00;;;;;;;22.22;73.79;99024.22;5098696;28;20058;-65